Time;durP1;ratioP1;P1;durP2;ratioP2;P2;SDS_P1;SDS_P2;PMS_P1;PMS_P2;Temp;Humidity;BMP_temperature;BMP_pressure;BME280_temperature;BME280_humidity;BME280_pressure;Samples;Min_cycle;Max_cycle;Signal;HPM_P1;HPM_P2
2022/03/17 00:00:14;;;;;;;18.13;10.30;;;22.10;50.00;;;;;;4914192;29;20028;-75
2022/03/17 00:02:40;;;;;;;16.00;9.07;;;22.10;50.70;;;;;;4914016;29;20020;-76
2022/03/17 00:05:08;;;;;;;20.08;10.23;;;22.10;50.20;;;;;;4912157;29;20090;-77
2022/03/17 00:07:39;;;;;;;16.48;9.52;;;22.10;50.20;;;;;;4906574;29;20047;-75
2022/03/17 00:10:10;;;;;;;16.95;9.75;;;22.10;50.20;;;;;;4914949;29;20039;-75
2022/03/17 00:12:36;;;;;;;15.05;9.70;;;22.10;50.20;;;;;;4907997;29;20024;-76
2022/03/17 00:15:04;;;;;;;14.70;8.88;;;22.20;50.20;;;;;;4908926;29;20064;-75
2022/03/17 00:17:30;;;;;;;18.10;9.80;;;22.10;50.20;;;;;;4905872;29;20183;-75
2022/03/17 00:19:56;;;;;;;15.63;9.80;;;22.20;50.40;;;;;;4907256;29;20466;-75
2022/03/17 00:22:22;;;;;;;16.00;8.93;;;22.10;50.20;;;;;;4910152;29;20024;-75
2022/03/17 00:24:48;;;;;;;17.10;8.98;;;22.10;50.20;;;;;;4910606;29;20973;-75
2022/03/17 00:27:14;;;;;;;17.55;9.95;;;22.10;50.20;;;;;;4908257;29;20086;-75
2022/03/17 00:29:40;;;;;;;15.02;9.23;;;22.10;50.30;;;;;;4913837;29;20065;-76
2022/03/17 00:32:07;;;;;;;15.85;9.60;;;22.10;50.30;;;;;;4914100;29;20681;-75
2022/03/17 00:35:35;;;;;;;17.15;9.82;;;22.10;50.30;;;;;;4924867;29;20031;-75
2022/03/17 00:37:24;;;;;;;15.30;9.23;;;22.10;50.40;;;;;;4918595;29;20401;-75
2022/03/17 00:39:50;;;;;;;20.15;9.50;;;22.10;50.30;;;;;;4915077;29;20020;-76
2022/03/17 00:42:16;;;;;;;13.43;9.65;;;22.10;50.30;;;;;;4918830;29;20032;-74
2022/03/17 00:44:42;;;;;;;14.02;8.82;;;22.10;50.30;;;;;;4917531;29;20095;-76
2022/03/17 00:47:08;;;;;;;15.93;8.82;;;22.10;50.40;;;;;;4917494;29;20044;-75
2022/03/17 00:49:34;;;;;;;16.52;9.27;;;22.10;50.30;;;;;;4916368;29;20032;-75
2022/03/17 00:51:59;;;;;;;15.82;9.27;;;22.10;50.40;;;;;;4917484;29;20028;-76
2022/03/17 00:54:26;;;;;;;15.55;9.32;;;22.10;50.40;;;;;;4923853;29;20127;-76
2022/03/17 00:56:52;;;;;;;16.35;9.18;;;22.10;50.40;;;;;;4917479;29;20031;-76
2022/03/17 00:59:18;;;;;;;15.10;9.35;;;22.10;50.40;;;;;;4917271;29;20028;-75
2022/03/17 01:01:44;;;;;;;22.65;9.45;;;22.10;50.40;;;;;;4917417;29;20465;-76
2022/03/17 01:04:09;;;;;;;17.23;8.95;;;22.10;50.30;;;;;;4915945;29;20084;-76
2022/03/17 01:06:35;;;;;;;17.90;8.90;;;22.10;50.30;;;;;;4917237;29;20032;-76
2022/03/17 01:09:01;;;;;;;15.40;8.93;;;22.10;50.20;;;;;;4917236;29;20042;-76
2022/03/17 01:11:27;;;;;;;15.23;9.00;;;22.10;50.20;;;;;;4900170;29;20087;-76
2022/03/17 01:13:53;;;;;;;16.27;8.98;;;22.10;50.20;;;;;;4914982;29;20036;-76
2022/03/17 01:16:18;;;;;;;13.77;8.73;;;22.10;50.20;;;;;;4898451;29;20099;-76
2022/03/17 01:18:44;;;;;;;15.55;9.10;;;22.10;50.20;;;;;;4917310;29;20024;-76
2022/03/17 01:21:10;;;;;;;13.80;8.88;;;22.10;50.20;;;;;;4917101;29;20020;-75
2022/03/17 01:23:36;;;;;;;16.35;8.77;;;22.10;50.20;;;;;;4915513;29;20499;-76
2022/03/17 01:26:02;;;;;;;18.92;8.90;;;22.10;50.20;;;;;;4916755;29;20064;-76
2022/03/17 01:28:28;;;;;;;16.27;8.77;;;22.10;50.20;;;;;;4916697;29;20158;-75
2022/03/17 01:30:54;;;;;;;14.10;9.20;;;22.10;50.10;;;;;;4917014;29;20029;-75
2022/03/17 01:33:20;;;;;;;18.38;8.55;;;22.10;50.10;;;;;;4914813;29;20028;-76
2022/03/17 01:35:45;;;;;;;17.10;9.50;;;22.10;50.70;;;;;;4917005;29;20055;-75
2022/03/17 01:38:11;;;;;;;15.43;9.13;;;22.20;50.70;;;;;;4916534;29;20092;-76
2022/03/17 01:40:37;;;;;;;14.00;9.13;;;22.20;50.50;;;;;;4915925;29;20493;-76
2022/03/17 01:43:03;;;;;;;15.02;9.15;;;22.10;50.30;;;;;;4915297;29;20040;-76
2022/03/17 01:45:29;;;;;;;21.17;8.65;;;22.10;50.00;;;;;;4915484;29;20483;-76
2022/03/17 01:47:55;;;;;;;16.85;8.85;;;22.10;50.50;;;;;;4916845;29;20024;-76
2022/03/17 01:50:20;;;;;;;17.15;8.88;;;22.10;49.90;;;;;;4916408;29;20079;-76
2022/03/17 01:52:47;;;;;;;15.85;8.73;;;22.10;49.90;;;;;;4916291;29;20485;-74
2022/03/17 01:55:17;;;;;;;16.27;8.57;;;22.10;50.10;;;;;;4916308;29;20040;-74
2022/03/17 01:57:43;;;;;;;23.75;9.00;;;22.00;50.20;;;;;;4914886;29;20078;-74
2022/03/17 02:00:14;;;;;;;15.07;8.68;;;22.00;50.30;;;;;;4915551;29;20040;-74
2022/03/17 02:02:42;;;;;;;14.68;8.13;;;22.00;50.40;;;;;;4915221;29;20063;-75
2022/03/17 02:05:08;;;;;;;14.45;8.55;;;22.10;50.50;;;;;;4915506;29;20051;-74
2022/03/17 02:07:33;;;;;;;16.33;7.97;;;22.00;50.50;;;;;;4916335;29;20119;-75
2022/03/17 02:09:59;;;;;;;11.95;7.95;;;22.00;50.60;;;;;;4914987;29;20131;-75
2022/03/17 02:15:12;;;;;;;11.60;7.72;;;22.00;50.60;;;;;;4914755;29;20409;-75
2022/03/17 02:17:41;;;;;;;13.57;7.85;;;22.00;50.70;;;;;;4916222;29;20150;-75
2022/03/17 02:20:16;;;;;;;12.57;7.70;;;22.00;50.80;;;;;;4915119;29;20154;-75
2022/03/17 02:22:45;;;;;;;13.38;8.20;;;22.00;50.80;;;;;;4915747;29;20028;-75
2022/03/17 02:27:59;;;;;;;10.02;7.03;;;22.00;51.00;;;;;;4916080;29;20056;-75
2022/03/17 02:30:24;;;;;;;13.63;7.88;;;22.00;51.00;;;;;;4914907;29;20119;-75
2022/03/17 02:32:59;;;;;;;13.23;7.80;;;22.00;51.00;;;;;;4914250;29;20441;-75
2022/03/17 02:35:26;;;;;;;11.05;7.40;;;22.00;51.10;;;;;;4915801;29;20028;-75
2022/03/17 02:37:52;;;;;;;11.20;7.63;;;22.00;51.20;;;;;;4914607;29;20043;-75
2022/03/17 02:40:18;;;;;;;12.30;7.90;;;21.90;51.20;;;;;;4914827;29;20437;-75
2022/03/17 02:42:45;;;;;;;15.82;8.00;;;22.00;51.30;;;;;;4915545;29;20062;-75
2022/03/17 02:45:11;;;;;;;16.15;8.13;;;22.00;52.10;;;;;;4914891;29;20035;-75
2022/03/17 02:47:37;;;;;;;13.88;7.38;;;22.00;51.50;;;;;;4914383;29;20051;-74
2022/03/17 02:50:04;;;;;;;11.95;6.95;;;22.00;51.60;;;;;;4914975;29;20067;-75
2022/03/17 02:52:30;;;;;;;12.95;6.88;;;21.90;51.70;;;;;;4895082;29;20060;-75
2022/03/17 02:54:56;;;;;;;13.68;7.75;;;21.90;51.70;;;;;;4896818;29;20437;-75
2022/03/17 02:57:22;;;;;;;12.18;7.50;;;22.00;51.70;;;;;;4895330;29;20112;-75
2022/03/17 02:59:54;;;;;;;13.32;7.07;;;21.90;51.60;;;;;;4896980;29;20056;-75
2022/03/17 03:02:21;;;;;;;13.85;7.28;;;21.90;51.70;;;;;;4896008;29;20033;-74
2022/03/17 03:04:47;;;;;;;11.27;7.35;;;21.90;51.80;;;;;;4896294;29;20088;-74
2022/03/17 03:07:14;;;;;;;11.35;7.43;;;21.90;51.80;;;;;;4906920;29;20037;-75
2022/03/17 03:09:40;;;;;;;14.55;7.88;;;21.90;51.80;;;;;;4915171;29;20032;-75
2022/03/17 03:12:06;;;;;;;13.02;7.57;;;21.90;51.80;;;;;;4914015;29;20485;-75
2022/03/17 03:14:32;;;;;;;12.07;7.57;;;21.90;51.80;;;;;;4913704;29;20039;-75
2022/03/17 03:16:58;;;;;;;12.90;7.45;;;21.90;51.80;;;;;;4915137;29;20024;-75
2022/03/17 03:19:24;;;;;;;12.50;7.50;;;21.90;51.80;;;;;;4913984;29;20024;-75
2022/03/17 03:21:50;;;;;;;12.68;7.07;;;21.90;51.80;;;;;;4915133;29;20374;-75
2022/03/17 03:24:16;;;;;;;10.40;7.25;;;21.90;51.90;;;;;;4914594;29;20096;-75
2022/03/17 03:26:42;;;;;;;12.32;7.38;;;22.00;52.10;;;;;;4914904;29;20026;-75
2022/03/17 03:29:28;;;;;;;10.93;7.30;;;21.90;51.90;;;;;;4915237;29;20032;-74
2022/03/17 03:31:56;;;;;;;11.05;6.95;;;21.90;52.00;;;;;;4915045;29;20115;-75
2022/03/17 03:34:22;;;;;;;11.55;7.30;;;21.90;52.00;;;;;;4882404;29;20036;-75
2022/03/17 03:39:34;;;;;;;14.55;6.85;;;21.90;52.10;;;;;;4913830;29;20115;-74
2022/03/17 03:42:00;;;;;;;11.73;7.43;;;21.90;52.10;;;;;;4914459;29;20060;-74
2022/03/17 03:44:25;;;;;;;13.13;7.30;;;21.90;52.10;;;;;;4913732;29;20028;-74
2022/03/17 03:46:51;;;;;;;11.10;7.50;;;21.90;52.10;;;;;;4913449;29;20024;-75
2022/03/17 03:49:18;;;;;;;13.48;7.38;;;21.90;52.20;;;;;;4915090;29;20036;-76
2022/03/17 03:51:43;;;;;;;11.07;7.07;;;21.90;52.20;;;;;;4914827;29;20028;-74
2022/03/17 03:54:13;;;;;;;13.15;7.30;;;21.90;52.30;;;;;;4914488;29;20096;-74
2022/03/17 03:56:44;;;;;;;12.18;7.47;;;21.90;52.50;;;;;;4914622;29;20038;-74
2022/03/17 03:59:13;;;;;;;9.80;7.18;;;21.90;52.50;;;;;;4915021;29;20025;-74
2022/03/17 04:01:39;;;;;;;11.43;7.43;;;21.90;52.70;;;;;;4915655;29;20032;-74
2022/03/17 04:04:05;;;;;;;13.55;7.07;;;21.80;52.60;;;;;;4901642;29;20028;-74
2022/03/17 04:06:34;;;;;;;10.93;7.10;;;21.90;52.60;;;;;;4918383;29;20116;-74
2022/03/17 04:08:59;;;;;;;11.10;7.50;;;21.90;52.60;;;;;;4918118;29;20036;-74
2022/03/17 04:11:25;;;;;;;11.85;7.20;;;21.80;52.60;;;;;;4918869;29;20068;-74
2022/03/17 04:13:51;;;;;;;11.82;7.72;;;21.90;52.70;;;;;;4917837;29;20036;-75
2022/03/17 04:16:17;;;;;;;12.85;7.32;;;21.80;52.60;;;;;;4918617;29;20406;-74
2022/03/17 04:18:42;;;;;;;11.73;7.50;;;21.90;52.80;;;;;;4918363;29;20040;-74
2022/03/17 04:21:08;;;;;;;10.23;7.30;;;21.90;52.70;;;;;;4918782;29;20037;-75
2022/03/17 04:23:34;;;;;;;11.52;7.65;;;21.80;52.60;;;;;;4917718;29;20393;-74
2022/03/17 04:25:59;;;;;;;10.85;7.10;;;21.90;52.70;;;;;;4917409;29;20062;-75
2022/03/17 04:28:25;;;;;;;11.27;7.90;;;21.80;52.70;;;;;;4902091;29;20047;-75
2022/03/17 04:30:51;;;;;;;10.90;7.53;;;21.80;52.70;;;;;;4919471;29;20036;-75
2022/03/17 04:33:16;;;;;;;11.05;6.93;;;21.80;52.60;;;;;;4917859;29;20504;-75
2022/03/17 04:35:42;;;;;;;19.65;7.25;;;21.80;52.80;;;;;;4920407;29;20485;-75
2022/03/17 04:38:07;;;;;;;15.02;6.95;;;21.90;53.00;;;;;;4920576;29;20477;-75
2022/03/17 04:40:33;;;;;;;14.40;7.15;;;21.80;53.00;;;;;;4918042;29;20028;-75
2022/03/17 04:42:59;;;;;;;15.40;7.60;;;21.80;52.90;;;;;;4917853;29;20024;-75
2022/03/17 04:45:24;;;;;;;12.70;7.78;;;21.80;53.00;;;;;;4917844;29;20056;-75
2022/03/17 04:47:50;;;;;;;12.55;7.65;;;21.80;53.10;;;;;;4916533;29;20075;-75
2022/03/17 04:50:16;;;;;;;11.93;7.45;;;21.80;53.10;;;;;;4916736;29;20123;-76
2022/03/17 04:55:33;;;;;;;13.95;7.53;;;21.80;53.00;;;;;;4916068;29;20056;-75
2022/03/17 04:57:59;;;;;;;13.65;7.13;;;21.80;52.90;;;;;;4900876;29;20047;-75
2022/03/17 05:00:25;;;;;;;13.30;7.45;;;21.80;53.00;;;;;;4916427;29;20063;-75
2022/03/17 05:02:50;;;;;;;11.50;7.40;;;21.80;53.20;;;;;;4916911;29;20032;-76
2022/03/17 05:05:16;;;;;;;11.57;7.47;;;21.80;53.30;;;;;;4917059;29;20400;-75
2022/03/17 05:07:42;;;;;;;12.48;7.60;;;21.80;53.10;;;;;;4917599;29;20462;-74
2022/03/17 05:10:09;;;;;;;13.68;7.65;;;21.80;53.80;;;;;;4917231;29;20087;-74
2022/03/17 05:12:34;;;;;;;12.68;7.95;;;21.80;53.30;;;;;;4916235;29;20024;-75
2022/03/17 05:15:00;;;;;;;10.65;7.53;;;21.80;53.30;;;;;;4916975;29;20036;-74
2022/03/17 05:17:26;;;;;;;11.38;7.32;;;21.80;53.20;;;;;;4917026;29;20024;-74
2022/03/17 05:19:52;;;;;;;11.48;7.28;;;21.80;53.30;;;;;;4899944;29;20124;-74
2022/03/17 05:22:17;;;;;;;11.35;7.43;;;21.80;53.20;;;;;;4915080;29;20028;-74
2022/03/17 05:24:43;;;;;;;11.95;7.88;;;21.80;53.20;;;;;;4917018;29;20536;-74
2022/03/17 05:27:08;;;;;;;12.52;7.72;;;21.80;53.10;;;;;;4915812;29;20024;-75
2022/03/17 05:29:34;;;;;;;10.88;7.25;;;21.80;53.30;;;;;;4915703;29;20036;-74
2022/03/17 05:32:00;;;;;;;13.00;8.00;;;21.80;53.30;;;;;;4916390;29;20024;-75
2022/03/17 05:34:26;;;;;;;12.07;7.93;;;21.80;53.30;;;;;;4916799;29;20035;-75
2022/03/17 05:36:51;;;;;;;13.45;8.07;;;21.80;53.20;;;;;;4916481;29;20031;-74
2022/03/17 05:39:17;;;;;;;12.90;7.00;;;21.80;53.30;;;;;;4916978;29;20117;-75
2022/03/17 05:41:43;;;;;;;12.40;7.88;;;21.80;53.30;;;;;;4916541;29;20118;-74
2022/03/17 05:44:09;;;;;;;13.20;7.78;;;21.80;53.40;;;;;;4915870;29;20040;-75
2022/03/17 05:46:34;;;;;;;11.13;7.68;;;21.70;53.30;;;;;;4915489;29;20028;-75
2022/03/17 05:49:00;;;;;;;12.45;7.57;;;21.70;53.30;;;;;;4915588;29;20502;-74
2022/03/17 05:51:26;;;;;;;16.15;8.02;;;21.70;53.40;;;;;;4916543;29;20110;-75
2022/03/17 05:53:52;;;;;;;13.18;7.85;;;21.70;53.30;;;;;;4915961;29;20028;-76
2022/03/17 05:56:17;;;;;;;12.98;8.20;;;21.70;53.20;;;;;;4916474;29;20111;-76
2022/03/17 05:58:43;;;;;;;11.13;7.97;;;21.70;53.30;;;;;;4916363;29;20168;-75
2022/03/17 06:01:09;;;;;;;12.23;8.30;;;21.70;53.20;;;;;;4914998;29;20024;-75
2022/03/17 06:03:35;;;;;;;12.18;7.82;;;21.70;53.10;;;;;;4914721;29;20437;-76
2022/03/17 06:06:00;;;;;;;14.63;8.30;;;21.70;53.10;;;;;;4916069;29;20527;-75
2022/03/17 06:08:27;;;;;;;11.60;7.75;;;21.70;53.30;;;;;;4914937;29;20496;-75
2022/03/17 06:10:52;;;;;;;13.02;8.18;;;21.70;53.20;;;;;;4915118;29;20044;-75
2022/03/17 06:13:18;;;;;;;11.98;7.85;;;21.70;53.10;;;;;;4915899;29;20441;-75
2022/03/17 06:15:44;;;;;;;13.85;8.48;;;21.70;53.20;;;;;;4915945;29;20028;-75
2022/03/17 06:18:11;;;;;;;13.35;8.23;;;21.70;53.10;;;;;;4915156;29;20032;-75
2022/03/17 06:20:37;;;;;;;11.48;7.90;;;21.70;53.10;;;;;;4915795;29;20039;-75
2022/03/17 06:23:06;;;;;;;10.82;7.50;;;21.80;53.20;;;;;;4915556;29;20062;-74
2022/03/17 06:25:33;;;;;;;12.00;8.18;;;21.80;53.10;;;;;;4915379;29;20024;-75
2022/03/17 06:27:59;;;;;;;13.68;8.50;;;21.70;53.10;;;;;;4916002;29;20024;-75
2022/03/17 06:30:34;;;;;;;12.30;8.02;;;21.80;53.00;;;;;;4915726;29;20496;-75
2022/03/17 06:33:01;;;;;;;13.57;8.23;;;21.70;53.00;;;;;;4915476;29;20036;-75
2022/03/17 06:35:27;;;;;;;14.10;8.20;;;21.70;53.00;;;;;;4915742;29;20140;-75
2022/03/17 06:37:56;;;;;;;13.27;8.02;;;21.70;52.90;;;;;;4915696;29;20032;-75
2022/03/17 06:40:23;;;;;;;12.93;8.57;;;21.70;53.00;;;;;;4915463;29;20413;-75
2022/03/17 06:42:50;;;;;;;13.32;8.60;;;21.70;52.90;;;;;;4915161;29;20030;-75
2022/03/17 06:45:17;;;;;;;13.82;7.78;;;21.70;52.90;;;;;;4915126;29;20118;-75
2022/03/17 06:47:43;;;;;;;12.48;8.48;;;21.70;53.00;;;;;;4914072;29;20040;-74
2022/03/17 06:50:10;;;;;;;14.65;8.13;;;21.70;53.00;;;;;;4915574;29;20047;-74
2022/03/17 06:52:36;;;;;;;16.35;8.38;;;21.70;52.90;;;;;;4913812;29;20484;-74
2022/03/17 06:55:02;;;;;;;12.43;8.40;;;21.70;53.00;;;;;;4914214;29;20450;-74
2022/03/17 06:57:28;;;;;;;13.77;8.35;;;21.70;52.90;;;;;;4915354;29;20075;-75
2022/03/17 06:59:54;;;;;;;15.05;8.02;;;21.70;52.90;;;;;;4915272;29;20028;-75
2022/03/17 07:02:19;;;;;;;12.70;8.38;;;21.70;52.80;;;;;;4914896;29;20028;-75
2022/03/17 07:04:45;;;;;;;13.10;8.50;;;21.70;52.80;;;;;;4915022;29;20115;-74
2022/03/17 07:07:11;;;;;;;15.00;8.18;;;21.70;52.90;;;;;;4915224;29;20039;-75
2022/03/17 07:09:38;;;;;;;14.32;8.52;;;21.70;53.00;;;;;;4914189;29;20032;-75
2022/03/17 07:12:05;;;;;;;13.70;8.40;;;21.70;52.90;;;;;;4914848;29;20067;-74
2022/03/17 07:14:30;;;;;;;12.77;8.23;;;21.70;53.00;;;;;;4914889;29;20457;-74
2022/03/17 07:16:56;;;;;;;12.20;8.23;;;21.70;53.00;;;;;;4915287;29;20025;-75
2022/03/17 07:19:22;;;;;;;16.15;8.98;;;21.70;53.10;;;;;;4914838;29;20156;-76
2022/03/17 07:21:49;;;;;;;13.70;8.32;;;21.70;52.90;;;;;;4915098;29;20792;-75
2022/03/17 07:24:15;;;;;;;17.20;8.30;;;21.80;53.00;;;;;;4914502;29;20546;-75
2022/03/17 07:26:41;;;;;;;16.83;8.70;;;21.70;53.00;;;;;;4913512;29;20039;-75
2022/03/17 07:29:08;;;;;;;15.68;9.70;;;21.70;53.10;;;;;;4910002;29;20778;-75
2022/03/17 07:31:34;;;;;;;14.38;9.15;;;21.70;53.20;;;;;;4909606;29;20028;-74
2022/03/17 07:34:00;;;;;;;16.85;8.68;;;21.70;53.40;;;;;;4912645;29;20050;-74
2022/03/17 07:36:27;;;;;;;14.75;9.32;;;21.70;52.90;;;;;;4914282;29;20032;-75
2022/03/17 07:38:56;;;;;;;14.88;8.52;;;21.80;52.80;;;;;;4916362;29;20028;-75
2022/03/17 07:41:22;;;;;;;;;;;21.70;52.80;;;;;;4916804;29;20031;-74
2022/03/17 07:43:48;;;;;;;17.10;9.90;;;21.70;52.90;;;;;;4914817;29;19998;-75
2022/03/17 07:46:31;;;;;;;14.40;10.23;;;21.70;53.00;;;;;;4915228;29;20096;-75
2022/03/17 07:49:14;;;;;;;15.32;10.15;;;21.80;53.40;;;;;;4915127;29;20114;-74
2022/03/17 07:51:42;;;;;;;14.40;9.63;;;21.80;54.00;;;;;;4912213;29;20024;-72
2022/03/17 07:54:09;;;;;;;18.27;10.95;;;21.80;53.80;;;;;;4917991;29;20040;-74
2022/03/17 07:56:37;;;;;;;19.85;13.27;;;21.80;53.60;;;;;;4917137;29;20036;-71
2022/03/17 07:59:02;;;;;;;43.55;33.85;;;21.70;52.70;;;;;;4915617;29;20028;-74
2022/03/17 08:01:28;;;;;;;40.05;34.30;;;21.50;47.10;;;;;;4911197;29;20039;-74
2022/03/17 08:03:54;;;;;;;35.83;28.20;;;21.50;47.10;;;;;;4911425;29;20024;-74
2022/03/17 08:06:25;;;;;;;35.80;26.02;;;21.50;47.90;;;;;;4914100;29;20500;-75
2022/03/17 08:08:52;;;;;;;29.40;23.40;;;21.50;48.50;;;;;;4914732;29;20040;-74
2022/03/17 08:11:18;;;;;;;28.42;22.75;;;21.50;49.10;;;;;;4914334;29;20495;-74
2022/03/17 08:13:45;;;;;;;30.88;22.55;;;21.50;49.50;;;;;;4914303;29;20060;-74
2022/03/17 08:16:12;;;;;;;27.48;20.58;;;21.60;50.30;;;;;;4915909;29;20738;-74
2022/03/17 08:18:38;;;;;;;27.17;19.73;;;21.60;49.70;;;;;;4915765;29;20062;-74
2022/03/17 08:21:04;;;;;;;27.98;20.13;;;21.60;49.60;;;;;;4915467;29;20063;-74
2022/03/17 08:23:30;;;;;;;23.33;19.10;;;21.60;49.80;;;;;;4910906;29;20388;-74
2022/03/17 08:25:55;;;;;;;26.20;19.30;;;21.60;49.90;;;;;;4914288;29;20028;-74
2022/03/17 08:28:21;;;;;;;23.60;18.13;;;21.60;50.00;;;;;;4914231;29;20382;-74
2022/03/17 08:30:49;;;;;;;24.92;18.08;;;21.60;50.20;;;;;;4915756;29;20451;-73
2022/03/17 08:33:16;;;;;;;24.02;17.98;;;21.70;50.20;;;;;;4913361;29;20056;-75
2022/03/17 08:35:42;;;;;;;24.40;18.08;;;21.70;50.30;;;;;;4915508;29;20028;-75
2022/03/17 08:38:08;;;;;;;26.92;17.45;;;21.70;50.40;;;;;;4913683;29;20390;-76
2022/03/17 08:40:36;;;;;;;23.38;17.40;;;21.70;50.60;;;;;;4915873;29;20622;-75
2022/03/17 08:43:02;;;;;;;24.92;16.52;;;21.70;50.80;;;;;;4914780;29;20020;-74
2022/03/17 08:50:56;;;;;;;25.63;16.92;;;21.70;51.00;;;;;;4898493;29;20042;-75
2022/03/17 08:53:22;;;;;;;22.42;17.30;;;21.70;51.00;;;;;;4912705;29;20032;-75
2022/03/17 08:55:49;;;;;;;24.05;16.50;;;21.70;51.00;;;;;;4914835;29;20072;-74
2022/03/17 08:58:16;;;;;;;25.40;18.58;;;21.70;50.80;;;;;;4915152;29;20028;-74
2022/03/17 09:00:43;;;;;;;25.85;17.42;;;21.70;50.60;;;;;;4914667;29;20032;-74
2022/03/17 09:03:09;;;;;;;21.30;16.50;;;21.70;50.80;;;;;;4914483;29;20035;-74
2022/03/17 09:05:36;;;;;;;21.60;15.43;;;21.70;50.90;;;;;;4911147;29;20028;-74
2022/03/17 09:08:05;;;;;;;23.13;16.60;;;21.60;51.00;;;;;;4915102;29;20529;-74
2022/03/17 09:10:33;;;;;;;23.92;16.77;;;21.70;51.20;;;;;;4914991;29;20080;-74
2022/03/17 09:13:06;;;;;;;23.90;16.23;;;21.70;51.00;;;;;;4913929;29;20020;-74
2022/03/17 09:15:32;;;;;;;24.27;16.42;;;21.70;51.20;;;;;;4913814;29;20064;-74
2022/03/17 09:17:58;;;;;;;23.83;15.77;;;21.70;51.20;;;;;;4898162;29;20032;-74
2022/03/17 09:20:25;;;;;;;20.83;15.10;;;21.70;51.10;;;;;;4917193;29;20023;-74
2022/03/17 09:22:50;;;;;;;21.23;15.63;;;21.70;51.10;;;;;;4913950;29;20063;-75
2022/03/17 09:25:18;;;;;;;22.45;15.52;;;21.70;51.20;;;;;;4914499;29;20060;-75
2022/03/17 09:27:44;;;;;;;20.70;14.93;;;21.70;51.20;;;;;;4913541;29;20048;-74
2022/03/17 09:30:10;;;;;;;22.52;16.10;;;21.70;51.30;;;;;;4912668;29;20480;-72
2022/03/17 09:32:36;;;;;;;23.33;16.67;;;21.70;51.20;;;;;;4913813;29;20036;-72
2022/03/17 09:35:02;;;;;;;26.60;16.65;;;21.80;52.10;;;;;;4913449;29;20028;-73
2022/03/17 09:37:28;;;;;;;24.35;18.65;;;21.90;54.00;;;;;;4914290;29;20032;-75
2022/03/17 09:39:54;;;;;;;24.92;19.27;;;21.90;53.90;;;;;;4914152;29;20095;-75
2022/03/17 09:42:21;;;;;;;24.98;18.70;;;22.00;54.10;;;;;;4914078;29;20493;-75
2022/03/17 09:44:53;;;;;;;29.77;18.88;;;22.00;54.10;;;;;;4912764;29;20036;-76
2022/03/17 09:47:21;;;;;;;28.52;17.83;;;22.00;54.60;;;;;;4913967;29;20099;-75
2022/03/17 09:49:49;;;;;;;22.13;17.23;;;22.00;54.40;;;;;;4913876;29;20473;-76
2022/03/17 09:52:17;;;;;;;23.88;16.60;;;22.00;53.50;;;;;;4913905;29;20043;-75
2022/03/17 09:54:44;;;;;;;22.60;16.40;;;22.00;53.10;;;;;;4912975;29;20040;-75
2022/03/17 09:57:10;;;;;;;25.67;17.33;;;22.00;53.00;;;;;;4913459;29;20115;-75
2022/03/17 09:59:36;;;;;;;25.63;16.85;;;21.90;53.20;;;;;;4912632;29;20136;-76
2022/03/17 10:02:03;;;;;;;24.52;17.45;;;21.90;53.00;;;;;;4913477;29;20123;-75
2022/03/17 10:04:33;;;;;;;26.33;17.27;;;21.90;53.30;;;;;;4909997;29;20051;-72
2022/03/17 10:07:02;;;;;;;30.17;17.92;;;21.90;53.20;;;;;;4911019;29;20393;-74
2022/03/17 10:09:30;;;;;;;27.75;17.73;;;21.90;53.10;;;;;;4913432;29;20107;-75
2022/03/17 10:12:11;;;;;;;34.75;16.88;;;21.90;53.20;;;;;;4912685;29;20027;-76
2022/03/17 10:14:46;;;;;;;31.30;20.60;;;21.90;52.00;;;;;;4912627;29;20035;-76
2022/03/17 10:17:36;;;;;;;26.48;17.55;;;21.90;52.70;;;;;;4910546;29;20040;-76
2022/03/17 10:20:18;;;;;;;25.35;18.20;;;21.80;52.50;;;;;;4909943;29;20025;-76
2022/03/17 10:22:48;;;;;;;25.95;18.08;;;21.80;52.60;;;;;;4912762;29;20162;-76
2022/03/17 10:25:19;;;;;;;25.60;16.25;;;21.80;52.50;;;;;;4896799;29;20036;-76
2022/03/17 10:27:46;;;;;;;26.02;17.23;;;21.80;52.50;;;;;;4926603;29;20044;-75
2022/03/17 10:30:13;;;;;;;25.08;16.73;;;21.80;52.40;;;;;;4911649;29;20119;-75
2022/03/17 10:32:39;;;;;;;25.15;16.65;;;21.80;52.40;;;;;;4896981;29;20038;-76
2022/03/17 10:35:08;;;;;;;24.00;17.45;;;21.80;52.40;;;;;;4911776;29;20476;-76
2022/03/17 10:37:40;;;;;;;26.13;16.77;;;21.80;52.30;;;;;;4912726;29;20393;-76
2022/03/17 10:40:10;;;;;;;20.88;16.05;;;21.80;52.40;;;;;;4913740;29;20028;-76
2022/03/17 10:42:36;;;;;;;26.75;16.13;;;21.70;52.20;;;;;;4911730;29;20054;-75
2022/03/17 10:45:05;;;;;;;27.75;17.13;;;21.80;52.30;;;;;;4915351;29;20050;-75
2022/03/17 10:47:34;;;;;;;24.42;16.65;;;21.80;52.40;;;;;;4914207;29;20382;-74
2022/03/17 10:50:18;;;;;;;24.73;17.23;;;21.80;52.70;;;;;;4905796;29;20432;-74
2022/03/17 10:52:52;;;;;;;29.20;16.58;;;21.80;53.20;;;;;;4909376;28;20499;-75
2022/03/17 10:55:25;;;;;;;30.60;15.20;;;21.80;53.80;;;;;;4911026;29;20509;-75
2022/03/17 10:57:54;;;;;;;28.55;15.93;;;21.90;54.30;;;;;;4910486;29;20111;-74
2022/03/17 11:00:22;;;;;;;32.58;16.73;;;21.90;53.40;;;;;;4912350;29;20032;-74
2022/03/17 11:02:57;;;;;;;28.42;16.52;;;21.90;54.50;;;;;;4891678;29;20401;-75
2022/03/17 11:05:23;;;;;;;29.13;15.68;;;21.90;54.90;;;;;;4911252;29;20036;-75
2022/03/17 11:07:51;;;;;;;25.08;15.38;;;21.90;52.50;;;;;;4910579;29;20039;-75
2022/03/17 11:10:20;;;;;;;32.30;17.52;;;21.90;52.30;;;;;;4908661;29;20032;-75
2022/03/17 11:12:46;;;;;;;27.40;16.20;;;21.90;54.50;;;;;;4912855;29;20068;-75
2022/03/17 11:15:12;;;;;;;32.55;17.80;;;21.90;54.50;;;;;;4912095;29;20114;-73
2022/03/17 11:17:47;;;;;;;34.90;16.60;;;21.90;53.60;;;;;;4911935;29;20549;-74
2022/03/17 11:20:18;;;;;;;29.52;17.70;;;21.90;53.50;;;;;;4912346;29;20497;-74
2022/03/17 11:23:02;;;;;;;23.92;16.83;;;22.00;56.40;;;;;;4912819;29;20020;-74
2022/03/17 11:25:29;;;;;;;28.13;16.00;;;22.00;55.60;;;;;;4906547;29;20116;-74
2022/03/17 11:28:00;;;;;;;24.15;16.52;;;22.00;55.10;;;;;;4910797;29;20084;-74
2022/03/17 11:30:43;;;;;;;30.55;16.42;;;22.00;54.20;;;;;;4910155;29;20035;-74
2022/03/17 11:33:36;;;;;;;23.60;16.08;;;22.00;54.60;;;;;;4908571;29;20024;-74
2022/03/17 11:36:08;;;;;;;28.98;15.80;;;22.00;54.30;;;;;;4910192;29;20477;-75
2022/03/17 11:38:38;;;;;;;25.48;16.35;;;22.10;54.40;;;;;;4912003;29;20087;-75
2022/03/17 11:41:09;;;;;;;27.83;16.08;;;22.10;54.40;;;;;;4911704;29;20066;-75
2022/03/17 11:44:02;;;;;;;29.15;16.33;;;22.10;54.30;;;;;;4911251;29;20095;-75
2022/03/17 11:46:45;;;;;;;24.33;16.27;;;22.10;54.20;;;;;;4893499;29;20049;-75
2022/03/17 11:49:27;;;;;;;25.15;15.98;;;22.10;54.30;;;;;;4911228;29;20023;-75
2022/03/17 11:52:04;;;;;;;29.33;16.42;;;22.10;54.30;;;;;;4909363;29;20457;-74
2022/03/17 11:54:31;;;;;;;25.60;14.77;;;22.20;54.20;;;;;;4911990;29;20032;-73
2022/03/17 11:57:05;;;;;;;27.65;15.73;;;22.20;54.20;;;;;;4911919;29;20028;-74
2022/03/17 11:59:55;;;;;;;27.05;16.88;;;22.20;54.50;;;;;;4907916;29;20036;-75
2022/03/17 12:02:29;;;;;;;28.60;17.30;;;22.20;54.20;;;;;;4907964;29;20485;-74
2022/03/17 12:04:54;;;;;;;34.60;17.80;;;22.20;54.00;;;;;;4912034;29;20088;-75
2022/03/17 12:07:21;;;;;;;29.23;17.10;;;22.20;53.80;;;;;;4912044;29;20040;-73
2022/03/17 12:09:47;;;;;;;33.15;17.17;;;22.20;54.10;;;;;;4908869;29;20421;-75
2022/03/17 12:12:19;;;;;;;30.58;17.65;;;22.20;53.50;;;;;;4911803;29;20441;-74
2022/03/17 12:14:56;;;;;;;26.70;17.30;;;22.20;53.80;;;;;;4912482;29;20501;-74
2022/03/17 12:17:26;;;;;;;30.27;17.75;;;22.20;53.80;;;;;;4908563;29;20031;-74
2022/03/17 12:20:19;;;;;;;31.77;17.45;;;22.20;53.80;;;;;;4914213;29;20052;-74
2022/03/17 12:22:45;;;;;;;29.00;16.55;;;22.20;53.80;;;;;;4913920;29;20397;-74
2022/03/17 12:25:19;;;;;;;27.20;16.90;;;22.30;53.80;;;;;;4914020;29;20064;-73
2022/03/17 12:27:55;;;;;;;29.60;16.08;;;22.20;53.70;;;;;;4913571;29;20087;-75
2022/03/17 12:30:22;;;;;;;27.77;16.27;;;22.30;53.60;;;;;;4917663;29;20059;-75
2022/03/17 12:32:59;;;;;;;26.58;16.48;;;22.30;53.60;;;;;;4914138;29;20036;-74
2022/03/17 12:35:32;;;;;;;28.85;16.38;;;22.30;53.70;;;;;;4918744;29;20035;-74
2022/03/17 12:38:06;;;;;;;29.63;16.38;;;22.30;53.80;;;;;;4914804;29;20030;-74
2022/03/17 12:40:44;;;;;;;30.15;16.95;;;22.30;53.80;;;;;;4916492;29;20516;-74
2022/03/17 12:43:18;;;;;;;32.25;17.38;;;22.30;53.70;;;;;;4912714;29;20024;-74
2022/03/17 12:45:47;;;;;;;32.15;18.25;;;22.30;53.80;;;;;;4912590;29;20047;-73
2022/03/17 12:48:16;;;;;;;38.37;20.87;;;22.30;54.20;;;;;;4913887;29;20038;-71
2022/03/17 12:50:42;;;;;;;37.28;25.75;;;22.30;54.70;;;;;;4913441;29;20107;-72
2022/03/17 12:53:09;;;;;;;43.42;32.78;;;22.20;52.70;;;;;;4912688;29;20580;-74